Breezy Point, Minnesota
Current Conditions -  °F | °C
As of 9:14 PM on Sunday 23 Nov 2014 (Local Time) from KPWC Reporting Station
Overcast Overcast  
Wind Chill: 26°   Ceiling: 1200
Heat Index: 32°   Visibility: 10mi
Dew Point: 28°   Wind: 6mph
Humidity: 87%   Direction: 300°WNW
Pressure: 29.43"   Gusts: NA
Location:  46.6832°N, 94.2515°W
Report Text: KPWC 240314Z AUTO 30005KT 10SM OVC012 00/M02 A2943 RMK AO2
Loading
Personal Weather Stations






























Interactive Weather Map New forecast layout! Learn more

10-Day Weather Forecast

Advertisements
Track Severe Weather on mobile